createdAt,value
2023-01-03T00:02:18.335Z,7.78
2023-01-03T00:04:49.409Z,7.61
2023-01-03T00:07:34.008Z,7.73
2023-01-03T00:10:10.510Z,7.70
2023-01-03T00:12:38.321Z,7.63
2023-01-03T00:15:05.977Z,7.55
2023-01-03T00:17:33.638Z,7.67
2023-01-03T00:20:01.207Z,7.76
2023-01-03T00:22:32.379Z,7.78
2023-01-03T00:24:59.819Z,7.77
2023-01-03T00:27:27.971Z,7.63
2023-01-03T00:29:55.581Z,7.64
2023-01-03T00:32:23.143Z,7.75
2023-01-03T00:34:50.454Z,7.82
2023-01-03T00:37:17.997Z,7.51
2023-01-03T00:39:45.330Z,7.53
2023-01-03T00:42:13.342Z,7.41
2023-01-03T00:44:40.684Z,7.59
2023-01-03T00:47:08.499Z,7.73
2023-01-03T00:49:36.038Z,7.74
2023-01-03T00:52:03.920Z,7.71
2023-01-03T00:54:31.184Z,7.32
2023-01-03T00:56:58.750Z,7.25
2023-01-03T00:59:26.279Z,7.17
2023-01-03T01:01:56.004Z,7.05
2023-01-03T01:04:28.697Z,7.11
2023-01-03T01:06:58.721Z,7.16
2023-01-03T01:09:31.913Z,7.27
2023-01-03T01:11:59.464Z,7.28
2023-01-03T01:14:29.236Z,7.30
2023-01-03T01:17:01.843Z,7.36
2023-01-03T01:19:36.548Z,7.25
2023-01-03T01:22:04.647Z,7.16
2023-01-03T01:24:32.944Z,6.99
2023-01-03T01:27:01.381Z,6.97
2023-01-03T01:29:28.617Z,6.93
2023-01-03T01:31:56.587Z,6.79
2023-01-03T01:34:24.165Z,6.75
2023-01-03T01:36:51.870Z,7.01
2023-01-03T01:39:25.875Z,6.79
2023-01-03T01:42:20.018Z,6.84
2023-01-03T01:44:58.003Z,6.92
2023-01-03T01:47:38.653Z,6.78
2023-01-03T01:50:38.539Z,6.69
2023-01-03T01:53:12.643Z,6.75
2023-01-03T01:55:53.810Z,6.71
2023-01-03T01:58:26.201Z,6.80
2023-01-03T02:00:54.304Z,6.84
2023-01-03T02:03:21.944Z,6.77
2023-01-03T02:05:53.256Z,6.77
2023-01-03T02:08:22.071Z,6.71
2023-01-03T02:11:01.249Z,6.74
2023-01-03T02:14:02.639Z,6.53
2023-01-03T02:17:06.895Z,6.53
2023-01-03T02:19:53.257Z,6.53
2023-01-03T02:22:32.626Z,6.56
2023-01-03T02:25:18.270Z,6.40
2023-01-03T02:28:17.873Z,6.59
2023-01-03T02:31:01.894Z,6.55
2023-01-03T02:33:37.739Z,6.43
2023-01-03T02:36:31.752Z,6.42
2023-01-03T02:39:12.970Z,6.28
2023-01-03T02:42:18.912Z,6.16
2023-01-03T02:45:11.127Z,6.13
2023-01-03T02:48:01.348Z,6.17
2023-01-03T02:50:32.501Z,6.17
2023-01-03T02:53:04.006Z,6.26
2023-01-03T02:55:33.856Z,6.09
2023-01-03T02:58:13.027Z,6.07
2023-01-03T03:00:44.286Z,6.06
2023-01-03T03:03:17.070Z,5.95
2023-01-03T03:05:56.823Z,6.13
2023-01-03T03:08:24.540Z,5.95
2023-01-03T03:11:12.955Z,5.94
2023-01-03T03:13:52.817Z,6.15
2023-01-03T03:16:49.563Z,6.06
2023-01-03T03:19:41.655Z,6.12
2023-01-03T03:22:40.643Z,6.13
2023-01-03T03:25:23.178Z,6.14
2023-01-03T03:28:12.911Z,5.93
2023-01-03T03:30:44.108Z,5.98
2023-01-03T03:33:14.203Z,6.08
2023-01-03T03:35:50.796Z,6.02
2023-01-03T03:38:25.702Z,6.03
2023-01-03T03:41:31.440Z,5.95
2023-01-03T03:44:41.105Z,5.88
2023-01-03T03:47:42.432Z,6.00
2023-01-03T03:50:34.936Z,5.89
2023-01-03T03:53:06.011Z,5.77
2023-01-03T03:55:49.779Z,5.72
2023-01-03T03:58:21.885Z,5.79
2023-01-03T04:00:51.903Z,5.84
2023-01-03T04:03:21.518Z,5.97
2023-01-03T04:05:54.748Z,6.01
2023-01-03T04:08:22.472Z,6.04
2023-01-03T04:10:50.042Z,6.02
2023-01-03T04:13:18.005Z,6.07
2023-01-03T04:15:45.286Z,5.96
2023-01-03T04:18:13.018Z,5.88
2023-01-03T04:20:40.268Z,5.85
2023-01-03T04:23:07.808Z,5.75
2023-01-03T04:25:35.143Z,5.66
2023-01-03T04:28:02.760Z,5.76
2023-01-03T04:30:30.048Z,5.83
2023-01-03T04:32:57.578Z,5.77
2023-01-03T04:35:24.869Z,5.92
2023-01-03T04:37:52.378Z,5.78
2023-01-03T04:40:19.595Z,6.00
2023-01-03T04:43:05.690Z,5.82
2023-01-03T04:45:33.014Z,5.95
2023-01-03T04:48:01.391Z,6.03
2023-01-03T04:50:30.337Z,5.80
2023-01-03T04:52:58.618Z,5.73
2023-01-03T04:55:26.470Z,5.80
2023-01-03T04:57:54.136Z,5.69
2023-01-03T05:00:21.508Z,5.68
2023-01-03T05:02:49.289Z,5.45
2023-01-03T05:05:16.691Z,5.44
2023-01-03T05:07:44.239Z,5.38
2023-01-03T05:10:11.527Z,5.33
2023-01-03T05:12:39.140Z,5.54
2023-01-03T05:15:07.125Z,5.31
2023-01-03T05:17:34.684Z,5.29
2023-01-03T05:20:20.517Z,5.37
2023-01-03T05:23:06.617Z,5.38
2023-01-03T05:25:51.991Z,5.45
2023-01-03T05:28:21.957Z,5.26
2023-01-03T05:30:49.530Z,5.24
2023-01-03T05:33:17.192Z,5.26
2023-01-03T05:35:47.756Z,5.22
2023-01-03T05:38:15.387Z,5.08
2023-01-03T05:40:43.158Z,5.09
2023-01-03T05:43:10.724Z,5.18
2023-01-03T05:45:39.311Z,4.95
2023-01-03T05:48:08.201Z,4.92
2023-01-03T05:50:35.711Z,5.03
2023-01-03T05:53:04.018Z,4.94
2023-01-03T05:55:31.318Z,5.02
2023-01-03T05:57:58.992Z,5.12
2023-01-03T06:00:26.249Z,5.11
2023-01-03T06:02:53.880Z,5.14
2023-01-03T06:05:21.180Z,5.12
2023-01-03T06:07:48.718Z,5.02
2023-01-03T06:10:16.006Z,4.87
2023-01-03T06:12:43.534Z,5.12
2023-01-03T06:15:11.373Z,4.94
2023-01-03T06:17:58.017Z,4.89
2023-01-03T06:20:29.357Z,4.83
2023-01-03T06:22:57.135Z,4.79
2023-01-03T06:25:24.910Z,4.80
2023-01-03T06:27:52.484Z,4.92
2023-01-03T06:30:20.977Z,4.81
2023-01-03T06:32:48.710Z,4.74
2023-01-03T06:35:16.006Z,4.77
2023-01-03T06:37:43.610Z,4.90
2023-01-03T06:40:11.328Z,4.76
2023-01-03T06:42:45.133Z,4.93
2023-01-03T06:45:32.572Z,4.89
2023-01-03T06:48:27.484Z,4.75
2023-01-03T06:51:14.088Z,4.88
2023-01-03T06:53:43.264Z,4.76
2023-01-03T06:56:11.776Z,4.74
2023-01-03T06:58:39.301Z,4.81
2023-01-03T07:01:06.870Z,4.94
2023-01-03T07:03:34.688Z,4.77
2023-01-03T07:06:01.963Z,5.01
2023-01-03T07:08:29.604Z,4.88
2023-01-03T07:10:57.000Z,4.86
2023-01-03T07:13:43.173Z,4.86
2023-01-03T07:16:15.346Z,4.93
2023-01-03T07:18:43.261Z,4.86
2023-01-03T07:21:10.687Z,4.88
2023-01-03T07:23:38.816Z,5.08
2023-01-03T07:26:06.732Z,5.03
2023-01-03T07:28:34.369Z,5.15
2023-01-03T07:31:06.439Z,5.22
2023-01-03T07:33:34.558Z,5.29
2023-01-03T07:36:11.003Z,5.46
2023-01-03T07:38:44.686Z,5.23
2023-01-03T07:41:13.309Z,4.93
2023-01-03T07:43:45.046Z,5.11
2023-01-03T07:46:16.082Z,4.91
2023-01-03T07:48:45.959Z,4.97
2023-01-03T07:51:14.838Z,4.90
2023-01-03T07:53:44.032Z,5.00
2023-01-03T07:56:14.399Z,4.92
2023-01-03T07:58:43.399Z,5.08
2023-01-03T08:01:13.739Z,4.98
2023-01-03T08:03:42.640Z,4.87
2023-01-03T08:06:15.123Z,4.96
2023-01-03T08:08:43.376Z,5.31
2023-01-03T08:11:33.185Z,5.60
2023-01-03T08:14:00.784Z,5.67
2023-01-03T08:16:28.763Z,5.80
2023-01-03T08:18:56.397Z,5.82
2023-01-03T08:21:23.759Z,5.89
2023-01-03T08:23:51.378Z,5.97
2023-01-03T08:26:19.022Z,5.90
2023-01-03T08:28:46.577Z,5.85
2023-01-03T08:31:18.544Z,5.93
2023-01-03T08:34:13.582Z,5.77
2023-01-03T08:36:57.456Z,5.82
2023-01-03T08:39:29.956Z,5.90
2023-01-03T08:42:04.833Z,5.96
2023-01-03T08:44:32.757Z,5.86
2023-01-03T08:47:07.980Z,5.95
2023-01-03T08:49:36.571Z,6.02
2023-01-03T08:52:04.502Z,6.15
2023-01-03T08:54:32.277Z,5.99
2023-01-03T08:56:59.518Z,6.06
2023-01-03T08:59:27.180Z,6.05
2023-01-03T09:01:58.852Z,5.93
2023-01-03T09:04:26.789Z,6.08
2023-01-03T09:06:54.102Z,6.09
2023-01-03T09:09:21.743Z,6.24
2023-01-03T09:11:49.060Z,6.31
2023-01-03T09:14:16.669Z,6.47
2023-01-03T09:16:49.018Z,6.28
2023-01-03T09:19:17.295Z,6.43
2023-01-03T09:21:44.573Z,6.58
2023-01-03T09:24:12.151Z,6.58
2023-01-03T09:26:39.401Z,6.42
2023-01-03T09:29:07.007Z,6.49
2023-01-03T09:31:35.387Z,6.53
2023-01-03T09:34:05.344Z,6.34
2023-01-03T09:36:33.179Z,6.38
2023-01-03T09:39:00.828Z,6.48
2023-01-03T09:41:28.638Z,6.37
2023-01-03T09:44:03.933Z,6.30
2023-01-03T09:46:33.358Z,6.55
2023-01-03T09:49:02.387Z,6.59
2023-01-03T09:51:50.579Z,6.62
2023-01-03T09:54:47.956Z,6.74
2023-01-03T09:57:45.059Z,6.80
2023-01-03T10:00:59.213Z,7.17
2023-01-03T10:03:50.208Z,7.43
2023-01-03T10:06:21.804Z,7.54
2023-01-03T10:09:13.317Z,7.03
2023-01-03T10:11:58.625Z,7.56
2023-01-03T10:14:52.126Z,6.70
2023-01-03T10:17:36.022Z,6.76
2023-01-03T10:20:09.353Z,6.56
2023-01-03T10:22:39.198Z,6.46
2023-01-03T10:25:15.631Z,6.92
2023-01-03T10:27:48.427Z,7.16
2023-01-03T10:30:26.107Z,7.37
2023-01-03T10:33:12.175Z,7.86
2023-01-03T10:35:39.460Z,7.70
2023-01-03T10:38:07.029Z,7.46
2023-01-03T10:40:42.966Z,7.83
2023-01-03T10:43:31.694Z,7.95
2023-01-03T10:46:01.854Z,7.52
2023-01-03T10:49:17.059Z,7.63
2023-01-03T10:51:43.202Z,6.97
2023-01-03T10:54:31.243Z,7.09
2023-01-03T10:56:58.797Z,7.11
2023-01-03T10:59:32.031Z,6.75
2023-01-03T11:01:59.398Z,7.02
2023-01-03T11:04:29.191Z,7.00
2023-01-03T11:07:13.587Z,6.65
2023-01-03T11:09:54.527Z,6.98
2023-01-03T11:12:37.052Z,7.01
2023-01-03T11:15:17.034Z,6.65
2023-01-03T11:18:06.202Z,6.77
2023-01-03T11:20:47.750Z,6.71
2023-01-03T11:23:53.436Z,6.98
2023-01-03T11:26:43.393Z,7.03
2023-01-03T11:29:21.493Z,7.00
2023-01-03T11:32:03.276Z,6.59
2023-01-03T11:34:48.262Z,6.76
2023-01-03T11:37:24.400Z,6.80
2023-01-03T11:40:00.790Z,6.95
2023-01-03T11:42:54.508Z,7.06
2023-01-03T11:45:21.746Z,6.44
2023-01-03T11:48:25.452Z,6.51
2023-01-03T11:50:55.164Z,6.98
2023-01-03T11:53:38.132Z,6.87
2023-01-03T11:56:19.501Z,7.10
2023-01-03T11:59:08.432Z,6.93
2023-01-03T12:01:46.758Z,6.63
2023-01-03T12:04:24.982Z,6.40
2023-01-03T12:07:48.031Z,6.51
2023-01-03T12:10:29.907Z,6.55
2023-01-03T12:13:09.061Z,6.55
2023-01-03T12:16:09.076Z,6.51
2023-01-03T12:18:42.205Z,6.41
2023-01-03T12:21:36.861Z,6.44
2023-01-03T12:24:20.734Z,6.16
2023-01-03T12:26:54.962Z,6.27
2023-01-03T12:29:31.656Z,6.24
2023-01-03T12:32:10.068Z,6.17
2023-01-03T12:34:50.386Z,6.45
2023-01-03T12:37:24.707Z,6.19
2023-01-03T12:39:56.689Z,5.86
2023-01-03T12:42:27.453Z,5.99
2023-01-03T12:45:18.830Z,6.08
2023-01-03T12:47:58.775Z,6.10
2023-01-03T12:50:46.994Z,5.97
2023-01-03T12:53:29.561Z,6.05
2023-01-03T12:56:27.940Z,6.13
2023-01-03T12:59:01.727Z,5.92
2023-01-03T13:01:43.435Z,5.93
2023-01-03T13:04:31.284Z,5.83
2023-01-03T13:07:07.296Z,6.02
2023-01-03T13:09:43.522Z,5.83
2023-01-03T13:12:24.303Z,5.77
2023-01-03T13:14:57.613Z,5.85
2023-01-03T13:17:26.735Z,5.68
2023-01-03T13:19:58.928Z,5.76
2023-01-03T13:22:50.643Z,5.53
2023-01-03T13:25:29.862Z,5.45
2023-01-03T13:28:04.450Z,5.59
2023-01-03T13:30:34.760Z,5.61
2023-01-03T13:33:01.939Z,5.52
2023-01-03T13:35:33.508Z,5.25
2023-01-03T13:38:31.587Z,5.45
2023-01-03T13:41:21.305Z,5.50
2023-01-03T13:43:51.853Z,5.51
2023-01-03T13:46:31.397Z,5.39
2023-01-03T13:48:58.901Z,5.42
2023-01-03T13:51:34.253Z,5.41
2023-01-03T13:54:13.652Z,5.50
2023-01-03T13:56:44.092Z,5.42
2023-01-03T13:59:42.205Z,5.53
2023-01-03T14:02:09.852Z,5.52
2023-01-03T14:04:58.272Z,5.45
2023-01-03T14:07:56.896Z,5.39
2023-01-03T14:10:45.779Z,5.62
2023-01-03T14:13:31.854Z,5.63
2023-01-03T14:16:19.138Z,5.51
2023-01-03T14:19:25.737Z,5.27
2023-01-03T14:22:34.868Z,5.13
2023-01-03T14:25:02.614Z,4.92
2023-01-03T14:27:37.937Z,4.89
2023-01-03T14:30:21.245Z,5.02
2023-01-03T14:32:48.777Z,4.82
2023-01-03T14:35:32.593Z,4.92
2023-01-03T14:38:06.183Z,5.08
2023-01-03T14:40:34.693Z,4.91
2023-01-03T14:43:04.973Z,4.72
2023-01-03T14:45:32.562Z,4.49
2023-01-03T14:47:59.899Z,4.74
2023-01-03T14:50:29.785Z,4.59
2023-01-03T14:52:59.653Z,4.65
2023-01-03T14:55:30.128Z,4.58
2023-01-03T14:57:59.339Z,4.60
2023-01-03T15:00:33.310Z,4.72
2023-01-03T15:03:04.803Z,4.52
2023-01-03T15:05:35.897Z,4.50
2023-01-03T15:08:15.381Z,4.69
2023-01-03T15:10:49.597Z,4.79
2023-01-03T15:13:25.883Z,4.70
2023-01-03T15:15:57.163Z,4.75
2023-01-03T15:18:27.214Z,4.80
2023-01-03T15:20:57.389Z,4.83
2023-01-03T15:23:45.862Z,4.77
2023-01-03T15:26:23.847Z,4.87
2023-01-03T15:29:15.614Z,4.77
2023-01-03T15:31:48.057Z,4.80
2023-01-03T15:34:30.855Z,4.88
2023-01-03T15:37:02.767Z,4.83
2023-01-03T15:40:03.443Z,4.89
2023-01-03T15:42:57.927Z,4.78
2023-01-03T15:45:33.298Z,4.91
2023-01-03T15:48:01.999Z,4.92
2023-01-03T15:50:59.788Z,5.04
2023-01-03T15:53:31.517Z,5.05
2023-01-03T15:56:06.000Z,5.04
2023-01-03T15:58:35.533Z,4.99
2023-01-03T16:01:04.539Z,4.99
2023-01-03T16:03:34.506Z,5.01
2023-01-03T16:06:02.935Z,4.67
2023-01-03T16:08:36.321Z,4.65
2023-01-03T16:11:10.057Z,4.43
2023-01-03T16:13:41.169Z,4.39
2023-01-03T16:16:09.977Z,4.45
2023-01-03T16:18:46.401Z,4.64
2023-01-03T16:21:14.341Z,4.40
2023-01-03T16:23:42.152Z,4.41
2023-01-03T16:26:09.771Z,4.29
2023-01-03T16:28:37.522Z,4.20
2023-01-03T16:31:19.320Z,4.06
2023-01-03T16:33:49.249Z,4.02
2023-01-03T16:36:29.521Z,4.06
2023-01-03T16:38:58.113Z,3.96
2023-01-03T16:41:25.724Z,3.92
2023-01-03T16:43:54.434Z,3.95
2023-01-03T16:46:24.060Z,3.93
2023-01-03T16:48:53.592Z,3.97
2023-01-03T16:51:27.282Z,3.63
2023-01-03T16:53:56.725Z,3.80
2023-01-03T16:56:24.910Z,3.87
2023-01-03T16:58:53.201Z,3.81
2023-01-03T17:01:20.983Z,3.72
2023-01-03T17:03:48.832Z,3.99
2023-01-03T17:06:37.817Z,4.09
2023-01-03T17:09:17.609Z,4.09
2023-01-03T17:11:45.774Z,4.17
2023-01-03T17:14:19.185Z,4.11
2023-01-03T17:16:47.233Z,4.01
2023-01-03T17:20:01.902Z,3.95
2023-01-03T17:22:17.401Z,3.93
2023-01-03T17:24:45.557Z,4.04
2023-01-03T17:27:32.761Z,4.04
2023-01-03T17:30:04.646Z,3.98
2023-01-03T17:32:32.102Z,3.88
2023-01-03T17:35:00.111Z,3.49
2023-01-03T17:37:27.553Z,3.40
2023-01-03T17:40:00.193Z,3.42
2023-01-03T17:42:29.248Z,3.49
2023-01-03T17:45:15.261Z,3.48
2023-01-03T17:48:02.620Z,3.61
2023-01-03T17:50:31.935Z,3.55
2023-01-03T17:53:02.005Z,3.72
2023-01-03T17:55:30.865Z,3.67
2023-01-03T17:58:01.704Z,3.91
2023-01-03T18:00:30.231Z,3.62
2023-01-03T18:03:00.498Z,3.54
2023-01-03T18:05:30.047Z,3.51
2023-01-03T18:08:01.914Z,3.70
2023-01-03T18:10:41.769Z,3.66
2023-01-03T18:13:23.603Z,3.72
2023-01-03T18:15:52.068Z,3.66
2023-01-03T18:18:22.107Z,3.81
2023-01-03T18:20:50.306Z,3.89
2023-01-03T18:23:22.734Z,4.06
2023-01-03T18:25:51.854Z,4.04
2023-01-03T18:28:24.705Z,4.09
2023-01-03T18:30:53.577Z,3.90
2023-01-03T18:33:21.231Z,4.00
2023-01-03T18:35:49.352Z,3.98
2023-01-03T18:38:29.566Z,4.16
2023-01-03T18:41:04.539Z,4.22
2023-01-03T18:43:33.409Z,4.48
2023-01-03T18:46:01.381Z,4.26
2023-01-03T18:48:28.855Z,4.17
2023-01-03T18:50:59.466Z,4.17
2023-01-03T18:53:31.529Z,4.13
2023-01-03T18:56:00.487Z,4.10
2023-01-03T18:58:39.088Z,4.42
2023-01-03T19:01:07.051Z,4.53
2023-01-03T19:03:36.057Z,4.65
2023-01-03T19:06:16.372Z,4.72
2023-01-03T19:08:43.959Z,4.49
2023-01-03T19:11:17.402Z,4.19
2023-01-03T19:13:51.528Z,4.22
2023-01-03T19:16:27.999Z,4.16
2023-01-03T19:18:56.183Z,4.07
2023-01-03T19:21:24.831Z,3.78
2023-01-03T19:24:22.709Z,3.80
2023-01-03T19:27:02.658Z,3.79
2023-01-03T19:29:37.152Z,3.83
2023-01-03T19:32:10.850Z,3.89
2023-01-03T19:34:38.268Z,3.93
2023-01-03T19:37:05.959Z,3.83
2023-01-03T19:39:37.300Z,4.06
2023-01-03T19:42:26.644Z,3.74
2023-01-03T19:44:55.284Z,3.53
2023-01-03T19:47:22.832Z,3.39
2023-01-03T19:49:50.329Z,3.48
2023-01-03T19:52:18.547Z,3.62
2023-01-03T19:54:45.831Z,3.51
2023-01-03T19:57:22.124Z,3.65
2023-01-03T19:59:53.754Z,3.49
2023-01-03T20:02:35.034Z,3.49
2023-01-03T20:05:03.113Z,3.57
2023-01-03T20:07:30.765Z,3.55
2023-01-03T20:09:58.090Z,3.52
2023-01-03T20:12:26.646Z,3.48
2023-01-03T20:14:59.957Z,3.46
2023-01-03T20:17:30.369Z,3.46
2023-01-03T20:19:57.934Z,3.32
2023-01-03T20:23:02.379Z,3.37
2023-01-03T20:25:31.303Z,3.32
2023-01-03T20:28:00.160Z,3.42
2023-01-03T20:30:30.246Z,3.59
2023-01-03T20:32:57.953Z,3.59
2023-01-03T20:38:24.756Z,3.83
2023-01-03T20:40:53.281Z,3.92
2023-01-03T20:43:21.603Z,3.88
2023-01-03T20:45:53.433Z,3.85
2023-01-03T20:48:25.516Z,3.96
2023-01-03T20:50:53.944Z,4.09
2023-01-03T20:53:26.153Z,4.10
2023-01-03T20:55:54.041Z,4.30
2023-01-03T20:58:27.976Z,4.45
2023-01-03T21:01:02.061Z,4.39
2023-01-03T21:03:33.078Z,4.36
2023-01-03T21:06:00.578Z,4.24
2023-01-03T21:08:47.030Z,4.24
2023-01-03T21:11:14.686Z,4.11
2023-01-03T21:13:42.413Z,3.97
2023-01-03T21:16:36.887Z,3.94
2023-01-03T21:19:22.124Z,4.02
2023-01-03T21:21:51.976Z,4.14
2023-01-03T21:24:22.565Z,4.35
2023-01-03T21:26:50.125Z,4.17
2023-01-03T21:29:18.048Z,4.18
2023-01-03T21:31:45.492Z,3.89
2023-01-03T21:34:21.224Z,3.92
2023-01-03T21:36:49.300Z,3.95
2023-01-03T21:39:16.940Z,3.83
2023-01-03T21:42:03.134Z,3.83
2023-01-03T21:44:30.530Z,4.18
2023-01-03T21:46:58.067Z,3.98
2023-01-03T21:49:25.338Z,4.08
2023-01-03T21:51:52.993Z,4.06
2023-01-03T21:54:20.998Z,3.91
2023-01-03T21:56:48.944Z,3.97
2023-01-03T21:59:16.832Z,4.02
2023-01-03T22:02:15.390Z,4.13
2023-01-03T22:04:42.681Z,4.14
2023-01-03T22:07:10.255Z,4.04
2023-01-03T22:09:56.109Z,3.90
2023-01-03T22:12:23.765Z,3.98
2023-01-03T22:14:51.018Z,4.11
2023-01-03T22:17:18.673Z,4.15
2023-01-03T22:19:45.943Z,4.24
2023-01-03T22:22:13.589Z,4.30
2023-01-03T22:24:41.089Z,4.14
2023-01-03T22:27:08.921Z,4.12
2023-01-03T22:29:36.233Z,4.25
2023-01-03T22:32:04.032Z,4.12
2023-01-03T22:34:31.475Z,4.10
2023-01-03T22:36:58.965Z,4.10
2023-01-03T22:39:26.235Z,4.13
2023-01-03T22:41:53.908Z,4.10
2023-01-03T22:44:21.327Z,3.97
2023-01-03T22:46:48.938Z,3.99
2023-01-03T22:49:16.180Z,3.80
2023-01-03T22:51:43.717Z,3.82
2023-01-03T22:54:10.979Z,3.78
2023-01-03T22:56:38.548Z,3.82
2023-01-03T22:59:05.831Z,3.70
2023-01-03T23:01:34.293Z,3.79
2023-01-03T23:04:03.348Z,3.93
2023-01-03T23:06:32.054Z,3.63
2023-01-03T23:09:00.202Z,3.30
2023-01-03T23:11:48.770Z,3.19
2023-01-03T23:14:18.235Z,3.22
2023-01-03T23:16:47.112Z,3.13
2023-01-03T23:19:16.635Z,2.96
2023-01-03T23:21:47.353Z,2.99
2023-01-03T23:24:17.473Z,3.10
2023-01-03T23:26:45.213Z,2.89
2023-01-03T23:29:14.471Z,2.94
2023-01-03T23:31:42.963Z,2.85
2023-01-03T23:34:11.406Z,2.94
2023-01-03T23:36:39.393Z,2.83
2023-01-03T23:39:06.668Z,2.87
2023-01-03T23:41:34.656Z,2.76
2023-01-03T23:44:01.904Z,2.64
2023-01-03T23:46:29.762Z,2.55
2023-01-03T23:48:58.124Z,2.42
2023-01-03T23:51:26.271Z,2.51
2023-01-03T23:53:54.434Z,2.38
2023-01-03T23:56:24.454Z,2.58
2023-01-03T23:58:52.877Z,2.17
